sensor_id;sensor_type;location;lat;lon;timestamp;P1;durP1;ratioP1;P2;durP2;ratioP2
7104;SDS011;3594;42.152;24.714;2022-11-15T00:02:00;9.70;;;6.40;;
7104;SDS011;3594;42.152;24.714;2022-11-15T00:04:25;16.60;;;8.63;;
7104;SDS011;3594;42.152;24.714;2022-11-15T00:06:50;17.40;;;8.53;;
7104;SDS011;3594;42.152;24.714;2022-11-15T00:09:16;14.13;;;8.73;;
7104;SDS011;3594;42.152;24.714;2022-11-15T00:11:41;11.97;;;8.10;;
7104;SDS011;3594;42.152;24.714;2022-11-15T00:14:06;14.80;;;8.77;;
7104;SDS011;3594;42.152;24.714;2022-11-15T00:16:32;9.63;;;6.57;;
7104;SDS011;3594;42.152;24.714;2022-11-15T00:18:57;12.37;;;7.47;;
7104;SDS011;3594;42.152;24.714;2022-11-15T00:21:22;19.43;;;8.80;;
7104;SDS011;3594;42.152;24.714;2022-11-15T00:23:48;13.47;;;6.80;;
7104;SDS011;3594;42.152;24.714;2022-11-15T00:26:14;18.87;;;9.00;;
7104;SDS011;3594;42.152;24.714;2022-11-15T00:28:40;14.70;;;8.27;;
7104;SDS011;3594;42.152;24.714;2022-11-15T00:31:08;19.50;;;7.67;;
7104;SDS011;3594;42.152;24.714;2022-11-15T00:33:36;17.93;;;8.20;;
7104;SDS011;3594;42.152;24.714;2022-11-15T00:36:02;18.03;;;7.10;;
7104;SDS011;3594;42.152;24.714;2022-11-15T00:38:36;16.83;;;7.10;;
7104;SDS011;3594;42.152;24.714;2022-11-15T00:41:04;16.50;;;7.40;;
7104;SDS011;3594;42.152;24.714;2022-11-15T00:43:30;25.90;;;8.07;;
7104;SDS011;3594;42.152;24.714;2022-11-15T00:45:56;13.23;;;7.50;;
7104;SDS011;3594;42.152;24.714;2022-11-15T00:48:21;20.93;;;8.67;;
7104;SDS011;3594;42.152;24.714;2022-11-15T00:50:48;17.33;;;8.50;;
7104;SDS011;3594;42.152;24.714;2022-11-15T00:53:14;13.07;;;6.87;;
7104;SDS011;3594;42.152;24.714;2022-11-15T00:55:39;14.43;;;7.00;;
7104;SDS011;3594;42.152;24.714;2022-11-15T00:58:05;14.30;;;7.63;;
7104;SDS011;3594;42.152;24.714;2022-11-15T01:00:30;18.13;;;7.63;;
7104;SDS011;3594;42.152;24.714;2022-11-15T01:02:55;14.80;;;7.37;;
7104;SDS011;3594;42.152;24.714;2022-11-15T01:05:21;12.40;;;7.00;;
7104;SDS011;3594;42.152;24.714;2022-11-15T01:07:47;14.87;;;6.53;;
7104;SDS011;3594;42.152;24.714;2022-11-15T01:10:16;16.50;;;7.87;;
7104;SDS011;3594;42.152;24.714;2022-11-15T01:12:42;13.63;;;7.23;;
7104;SDS011;3594;42.152;24.714;2022-11-15T01:15:07;16.20;;;7.30;;
7104;SDS011;3594;42.152;24.714;2022-11-15T01:17:33;16.03;;;7.93;;
7104;SDS011;3594;42.152;24.714;2022-11-15T01:19:58;12.77;;;6.73;;
7104;SDS011;3594;42.152;24.714;2022-11-15T01:22:23;14.60;;;7.87;;
7104;SDS011;3594;42.152;24.714;2022-11-15T01:24:49;14.50;;;7.73;;
7104;SDS011;3594;42.152;24.714;2022-11-15T01:27:15;14.67;;;7.73;;
7104;SDS011;3594;42.152;24.714;2022-11-15T01:29:41;11.90;;;7.03;;
7104;SDS011;3594;42.152;24.714;2022-11-15T01:32:06;19.30;;;7.60;;
7104;SDS011;3594;42.152;24.714;2022-11-15T01:34:32;16.00;;;7.27;;
7104;SDS011;3594;42.152;24.714;2022-11-15T01:36:57;13.93;;;7.93;;
7104;SDS011;3594;42.152;24.714;2022-11-15T01:39:23;16.20;;;8.00;;
7104;SDS011;3594;42.152;24.714;2022-11-15T01:41:49;14.57;;;6.90;;
7104;SDS011;3594;42.152;24.714;2022-11-15T01:46:59;16.07;;;7.37;;
7104;SDS011;3594;42.152;24.714;2022-11-15T01:49:32;13.40;;;7.03;;
7104;SDS011;3594;42.152;24.714;2022-11-15T01:52:00;10.90;;;7.00;;
7104;SDS011;3594;42.152;24.714;2022-11-15T01:54:29;19.13;;;7.13;;
7104;SDS011;3594;42.152;24.714;2022-11-15T01:56:57;13.33;;;6.63;;
7104;SDS011;3594;42.152;24.714;2022-11-15T01:59:26;12.37;;;6.73;;
7104;SDS011;3594;42.152;24.714;2022-11-15T02:01:52;15.07;;;7.17;;
7104;SDS011;3594;42.152;24.714;2022-11-15T02:04:20;16.60;;;7.37;;
7104;SDS011;3594;42.152;24.714;2022-11-15T02:06:49;12.33;;;7.07;;
7104;SDS011;3594;42.152;24.714;2022-11-15T02:09:15;14.80;;;8.07;;
7104;SDS011;3594;42.152;24.714;2022-11-15T02:11:41;15.83;;;6.53;;
7104;SDS011;3594;42.152;24.714;2022-11-15T02:14:08;15.00;;;7.60;;
7104;SDS011;3594;42.152;24.714;2022-11-15T02:21:55;11.30;;;6.37;;
7104;SDS011;3594;42.152;24.714;2022-11-15T02:36:43;11.13;;;6.57;;
7104;SDS011;3594;42.152;24.714;2022-11-15T02:39:31;9.67;;;6.13;;
7104;SDS011;3594;42.152;24.714;2022-11-15T02:42:06;11.63;;;7.77;;
7104;SDS011;3594;42.152;24.714;2022-11-15T02:44:56;12.27;;;5.87;;
7104;SDS011;3594;42.152;24.714;2022-11-15T02:47:26;12.73;;;5.63;;
7104;SDS011;3594;42.152;24.714;2022-11-15T02:49:56;13.43;;;6.27;;
7104;SDS011;3594;42.152;24.714;2022-11-15T02:52:25;12.83;;;6.57;;
7104;SDS011;3594;42.152;24.714;2022-11-15T02:54:54;11.53;;;6.50;;
7104;SDS011;3594;42.152;24.714;2022-11-15T02:57:43;10.03;;;5.93;;
7104;SDS011;3594;42.152;24.714;2022-11-15T03:00:17;10.90;;;5.80;;
7104;SDS011;3594;42.152;24.714;2022-11-15T03:05:40;10.73;;;6.33;;
7104;SDS011;3594;42.152;24.714;2022-11-15T03:10:58;8.40;;;5.70;;
7104;SDS011;3594;42.152;24.714;2022-11-15T03:16:21;10.93;;;5.83;;
7104;SDS011;3594;42.152;24.714;2022-11-15T03:18:55;8.30;;;5.80;;
7104;SDS011;3594;42.152;24.714;2022-11-15T03:21:26;11.63;;;5.80;;
7104;SDS011;3594;42.152;24.714;2022-11-15T03:23:55;12.50;;;5.63;;
7104;SDS011;3594;42.152;24.714;2022-11-15T03:26:25;11.87;;;6.50;;
7104;SDS011;3594;42.152;24.714;2022-11-15T03:28:56;16.40;;;7.63;;
7104;SDS011;3594;42.152;24.714;2022-11-15T03:31:27;10.07;;;5.53;;
7104;SDS011;3594;42.152;24.714;2022-11-15T03:34:19;8.07;;;5.60;;
7104;SDS011;3594;42.152;24.714;2022-11-15T03:36:51;11.03;;;6.00;;
7104;SDS011;3594;42.152;24.714;2022-11-15T03:39:17;6.30;;;4.57;;
7104;SDS011;3594;42.152;24.714;2022-11-15T03:42:08;15.27;;;6.20;;
7104;SDS011;3594;42.152;24.714;2022-11-15T03:47:35;10.90;;;5.87;;
7104;SDS011;3594;42.152;24.714;2022-11-15T03:50:10;8.83;;;5.27;;
7104;SDS011;3594;42.152;24.714;2022-11-15T03:52:40;10.80;;;6.20;;
7104;SDS011;3594;42.152;24.714;2022-11-15T03:55:07;10.90;;;6.37;;
7104;SDS011;3594;42.152;24.714;2022-11-15T03:57:35;12.80;;;6.67;;
7104;SDS011;3594;42.152;24.714;2022-11-15T04:00:02;10.07;;;5.90;;
7104;SDS011;3594;42.152;24.714;2022-11-15T04:02:28;11.73;;;6.47;;
7104;SDS011;3594;42.152;24.714;2022-11-15T04:04:54;10.57;;;7.07;;
7104;SDS011;3594;42.152;24.714;2022-11-15T04:07:19;8.17;;;5.53;;
7104;SDS011;3594;42.152;24.714;2022-11-15T04:09:45;12.83;;;5.53;;
7104;SDS011;3594;42.152;24.714;2022-11-15T04:12:32;12.23;;;5.77;;
7104;SDS011;3594;42.152;24.714;2022-11-15T04:17:46;8.40;;;4.93;;
7104;SDS011;3594;42.152;24.714;2022-11-15T04:23:00;8.17;;;5.73;;
7104;SDS011;3594;42.152;24.714;2022-11-15T04:25:45;13.90;;;6.80;;
7104;SDS011;3594;42.152;24.714;2022-11-15T04:28:14;8.53;;;4.93;;
7104;SDS011;3594;42.152;24.714;2022-11-15T04:30:39;10.17;;;6.00;;
7104;SDS011;3594;42.152;24.714;2022-11-15T04:33:04;15.33;;;6.73;;
7104;SDS011;3594;42.152;24.714;2022-11-15T04:35:30;10.50;;;6.00;;
7104;SDS011;3594;42.152;24.714;2022-11-15T04:37:56;11.77;;;6.17;;
7104;SDS011;3594;42.152;24.714;2022-11-15T04:40:22;10.33;;;5.57;;
7104;SDS011;3594;42.152;24.714;2022-11-15T04:42:47;13.60;;;6.10;;
7104;SDS011;3594;42.152;24.714;2022-11-15T04:45:13;16.03;;;6.53;;
7104;SDS011;3594;42.152;24.714;2022-11-15T04:47:38;10.80;;;6.27;;
7104;SDS011;3594;42.152;24.714;2022-11-15T04:50:04;8.33;;;6.33;;
7104;SDS011;3594;42.152;24.714;2022-11-15T04:52:29;12.40;;;6.47;;
7104;SDS011;3594;42.152;24.714;2022-11-15T04:54:55;8.63;;;5.37;;
7104;SDS011;3594;42.152;24.714;2022-11-15T04:57:20;14.20;;;5.73;;
7104;SDS011;3594;42.152;24.714;2022-11-15T04:59:46;10.67;;;6.07;;
7104;SDS011;3594;42.152;24.714;2022-11-15T05:02:11;8.47;;;5.33;;
7104;SDS011;3594;42.152;24.714;2022-11-15T05:04:37;10.07;;;5.23;;
7104;SDS011;3594;42.152;24.714;2022-11-15T05:07:02;10.13;;;6.27;;
7104;SDS011;3594;42.152;24.714;2022-11-15T05:09:31;9.13;;;5.70;;
7104;SDS011;3594;42.152;24.714;2022-11-15T05:11:56;10.97;;;5.30;;
7104;SDS011;3594;42.152;24.714;2022-11-15T05:14:21;11.00;;;6.30;;
7104;SDS011;3594;42.152;24.714;2022-11-15T05:16:47;13.83;;;6.10;;
7104;SDS011;3594;42.152;24.714;2022-11-15T05:19:12;10.10;;;5.57;;
7104;SDS011;3594;42.152;24.714;2022-11-15T05:21:38;12.93;;;6.47;;
7104;SDS011;3594;42.152;24.714;2022-11-15T05:24:03;9.37;;;5.00;;
7104;SDS011;3594;42.152;24.714;2022-11-15T05:26:29;6.93;;;5.40;;
7104;SDS011;3594;42.152;24.714;2022-11-15T05:28:56;11.23;;;6.77;;
7104;SDS011;3594;42.152;24.714;2022-11-15T05:31:23;11.17;;;6.23;;
7104;SDS011;3594;42.152;24.714;2022-11-15T05:33:49;9.30;;;5.80;;
7104;SDS011;3594;42.152;24.714;2022-11-15T05:39:03;7.63;;;4.47;;
7104;SDS011;3594;42.152;24.714;2022-11-15T05:41:32;16.27;;;6.20;;
7104;SDS011;3594;42.152;24.714;2022-11-15T05:44:02;10.40;;;6.07;;
7104;SDS011;3594;42.152;24.714;2022-11-15T05:46:32;8.73;;;5.30;;
7104;SDS011;3594;42.152;24.714;2022-11-15T05:48:58;11.17;;;5.73;;
7104;SDS011;3594;42.152;24.714;2022-11-15T05:51:24;8.33;;;5.10;;
7104;SDS011;3594;42.152;24.714;2022-11-15T05:53:54;7.63;;;5.47;;
7104;SDS011;3594;42.152;24.714;2022-11-15T05:56:21;9.53;;;4.73;;
7104;SDS011;3594;42.152;24.714;2022-11-15T05:58:47;14.73;;;6.43;;
7104;SDS011;3594;42.152;24.714;2022-11-15T06:01:13;9.07;;;5.73;;
7104;SDS011;3594;42.152;24.714;2022-11-15T06:03:38;15.07;;;6.23;;
7104;SDS011;3594;42.152;24.714;2022-11-15T06:06:04;12.20;;;6.00;;
7104;SDS011;3594;42.152;24.714;2022-11-15T06:08:29;9.63;;;5.60;;
7104;SDS011;3594;42.152;24.714;2022-11-15T06:10:55;13.77;;;7.33;;
7104;SDS011;3594;42.152;24.714;2022-11-15T06:13:20;10.03;;;6.17;;
7104;SDS011;3594;42.152;24.714;2022-11-15T06:15:45;8.93;;;5.53;;
7104;SDS011;3594;42.152;24.714;2022-11-15T06:18:11;8.87;;;5.07;;
7104;SDS011;3594;42.152;24.714;2022-11-15T06:20:36;8.77;;;5.00;;
7104;SDS011;3594;42.152;24.714;2022-11-15T06:23:03;13.27;;;6.13;;
7104;SDS011;3594;42.152;24.714;2022-11-15T06:25:29;9.20;;;5.37;;
7104;SDS011;3594;42.152;24.714;2022-11-15T06:27:56;9.17;;;5.53;;
7104;SDS011;3594;42.152;24.714;2022-11-15T06:30:23;10.57;;;6.73;;
7104;SDS011;3594;42.152;24.714;2022-11-15T06:32:49;12.03;;;5.50;;
7104;SDS011;3594;42.152;24.714;2022-11-15T06:35:15;9.50;;;5.03;;
7104;SDS011;3594;42.152;24.714;2022-11-15T06:37:41;9.40;;;5.13;;
7104;SDS011;3594;42.152;24.714;2022-11-15T06:40:08;11.90;;;4.93;;
7104;SDS011;3594;42.152;24.714;2022-11-15T06:42:35;8.93;;;5.53;;
7104;SDS011;3594;42.152;24.714;2022-11-15T06:45:02;9.73;;;5.03;;
7104;SDS011;3594;42.152;24.714;2022-11-15T06:47:27;12.68;;;5.90;;
7104;SDS011;3594;42.152;24.714;2022-11-15T06:49:53;16.70;;;5.90;;
7104;SDS011;3594;42.152;24.714;2022-11-15T06:52:18;9.77;;;5.50;;
7104;SDS011;3594;42.152;24.714;2022-11-15T06:54:44;8.98;;;5.25;;
7104;SDS011;3594;42.152;24.714;2022-11-15T06:57:10;9.90;;;4.97;;
7104;SDS011;3594;42.152;24.714;2022-11-15T06:59:36;9.30;;;5.20;;
7104;SDS011;3594;42.152;24.714;2022-11-15T07:02:02;9.18;;;5.50;;
7104;SDS011;3594;42.152;24.714;2022-11-15T07:04:28;14.73;;;5.47;;
7104;SDS011;3594;42.152;24.714;2022-11-15T07:06:53;10.13;;;5.40;;
7104;SDS011;3594;42.152;24.714;2022-11-15T07:09:19;9.88;;;5.65;;
7104;SDS011;3594;42.152;24.714;2022-11-15T07:11:44;11.20;;;5.32;;
7104;SDS011;3594;42.152;24.714;2022-11-15T07:14:09;8.98;;;5.07;;
7104;SDS011;3594;42.152;24.714;2022-11-15T07:16:36;12.10;;;6.00;;
7104;SDS011;3594;42.152;24.714;2022-11-15T07:19:02;8.98;;;5.53;;
7104;SDS011;3594;42.152;24.714;2022-11-15T07:21:27;12.85;;;5.18;;
7104;SDS011;3594;42.152;24.714;2022-11-15T07:23:53;9.13;;;5.50;;
7104;SDS011;3594;42.152;24.714;2022-11-15T07:26:18;9.25;;;5.80;;
7104;SDS011;3594;42.152;24.714;2022-11-15T07:28:43;9.93;;;5.43;;
7104;SDS011;3594;42.152;24.714;2022-11-15T07:31:09;10.30;;;5.80;;
7104;SDS011;3594;42.152;24.714;2022-11-15T07:33:34;14.55;;;6.00;;
7104;SDS011;3594;42.152;24.714;2022-11-15T07:36:01;12.68;;;6.47;;
7104;SDS011;3594;42.152;24.714;2022-11-15T07:38:28;9.07;;;5.18;;
7104;SDS011;3594;42.152;24.714;2022-11-15T07:40:58;14.70;;;6.40;;
7104;SDS011;3594;42.152;24.714;2022-11-15T07:43:24;10.95;;;6.10;;
7104;SDS011;3594;42.152;24.714;2022-11-15T07:45:52;14.98;;;5.72;;
7104;SDS011;3594;42.152;24.714;2022-11-15T07:48:18;10.35;;;5.90;;
7104;SDS011;3594;42.152;24.714;2022-11-15T07:50:43;12.02;;;6.55;;
7104;SDS011;3594;42.152;24.714;2022-11-15T07:53:09;9.38;;;5.75;;
7104;SDS011;3594;42.152;24.714;2022-11-15T07:55:35;12.68;;;4.93;;
7104;SDS011;3594;42.152;24.714;2022-11-15T07:58:02;9.88;;;4.15;;
7104;SDS011;3594;42.152;24.714;2022-11-15T08:00:29;8.07;;;4.57;;
7104;SDS011;3594;42.152;24.714;2022-11-15T08:03:04;9.23;;;5.88;;
7104;SDS011;3594;42.152;24.714;2022-11-15T08:05:32;15.13;;;6.32;;
7104;SDS011;3594;42.152;24.714;2022-11-15T08:07:58;15.30;;;6.22;;
7104;SDS011;3594;42.152;24.714;2022-11-15T08:10:24;10.20;;;5.25;;
7104;SDS011;3594;42.152;24.714;2022-11-15T08:12:57;13.32;;;6.35;;
7104;SDS011;3594;42.152;24.714;2022-11-15T08:15:25;8.70;;;4.95;;
7104;SDS011;3594;42.152;24.714;2022-11-15T08:17:59;12.13;;;5.70;;
7104;SDS011;3594;42.152;24.714;2022-11-15T08:20:27;6.53;;;4.25;;
7104;SDS011;3594;42.152;24.714;2022-11-15T08:22:59;11.40;;;4.72;;
7104;SDS011;3594;42.152;24.714;2022-11-15T08:25:26;10.57;;;5.45;;
7104;SDS011;3594;42.152;24.714;2022-11-15T08:27:53;9.05;;;5.47;;
7104;SDS011;3594;42.152;24.714;2022-11-15T08:30:19;11.57;;;5.47;;
7104;SDS011;3594;42.152;24.714;2022-11-15T08:32:45;9.35;;;5.20;;
7104;SDS011;3594;42.152;24.714;2022-11-15T08:35:10;11.68;;;5.53;;
7104;SDS011;3594;42.152;24.714;2022-11-15T08:37:36;12.18;;;5.75;;
7104;SDS011;3594;42.152;24.714;2022-11-15T08:40:02;11.32;;;5.25;;
7104;SDS011;3594;42.152;24.714;2022-11-15T08:42:28;14.07;;;5.75;;
7104;SDS011;3594;42.152;24.714;2022-11-15T08:44:53;8.57;;;5.40;;
7104;SDS011;3594;42.152;24.714;2022-11-15T08:47:19;10.48;;;5.15;;
7104;SDS011;3594;42.152;24.714;2022-11-15T08:49:44;10.00;;;5.15;;
7104;SDS011;3594;42.152;24.714;2022-11-15T08:52:09;11.05;;;4.60;;
7104;SDS011;3594;42.152;24.714;2022-11-15T08:54:35;10.75;;;5.53;;
7104;SDS011;3594;42.152;24.714;2022-11-15T08:57:00;10.93;;;5.47;;
7104;SDS011;3594;42.152;24.714;2022-11-15T08:59:25;10.98;;;5.53;;
7104;SDS011;3594;42.152;24.714;2022-11-15T09:01:51;9.43;;;4.80;;
7104;SDS011;3594;42.152;24.714;2022-11-15T09:04:16;13.65;;;5.78;;
7104;SDS011;3594;42.152;24.714;2022-11-15T09:06:42;12.70;;;6.30;;
7104;SDS011;3594;42.152;24.714;2022-11-15T09:09:07;11.50;;;6.70;;
7104;SDS011;3594;42.152;24.714;2022-11-15T09:11:32;10.45;;;5.57;;
7104;SDS011;3594;42.152;24.714;2022-11-15T09:13:58;11.50;;;5.85;;
7104;SDS011;3594;42.152;24.714;2022-11-15T09:16:23;15.82;;;6.28;;
7104;SDS011;3594;42.152;24.714;2022-11-15T09:18:49;12.88;;;5.57;;
7104;SDS011;3594;42.152;24.714;2022-11-15T09:21:14;11.43;;;6.00;;
7104;SDS011;3594;42.152;24.714;2022-11-15T09:23:39;15.45;;;5.80;;
7104;SDS011;3594;42.152;24.714;2022-11-15T09:26:05;11.48;;;6.13;;
7104;SDS011;3594;42.152;24.714;2022-11-15T09:28:31;11.60;;;5.82;;
7104;SDS011;3594;42.152;24.714;2022-11-15T09:30:58;13.20;;;6.68;;
7104;SDS011;3594;42.152;24.714;2022-11-15T09:33:25;14.80;;;5.95;;
7104;SDS011;3594;42.152;24.714;2022-11-15T09:35:51;14.18;;;6.38;;
7104;SDS011;3594;42.152;24.714;2022-11-15T09:38:17;14.95;;;6.40;;
7104;SDS011;3594;42.152;24.714;2022-11-15T09:40:43;16.15;;;6.88;;
7104;SDS011;3594;42.152;24.714;2022-11-15T09:45:45;14.05;;;6.38;;
7104;SDS011;3594;42.152;24.714;2022-11-15T09:50:50;13.40;;;7.18;;
7104;SDS011;3594;42.152;24.714;2022-11-15T09:53:23;17.48;;;7.22;;
7104;SDS011;3594;42.152;24.714;2022-11-15T09:56:02;8.50;;;4.70;;
7104;SDS011;3594;42.152;24.714;2022-11-15T10:01:59;12.90;;;6.47;;
7104;SDS011;3594;42.152;24.714;2022-11-15T10:04:16;9.48;;;5.75;;
7104;SDS011;3594;42.152;24.714;2022-11-15T10:06:43;13.88;;;6.35;;
7104;SDS011;3594;42.152;24.714;2022-11-15T10:09:39;13.10;;;6.50;;
7104;SDS011;3594;42.152;24.714;2022-11-15T10:12:29;12.68;;;5.93;;
7104;SDS011;3594;42.152;24.714;2022-11-15T10:15:07;13.32;;;6.75;;
7104;SDS011;3594;42.152;24.714;2022-11-15T10:22:37;18.58;;;6.75;;
7104;SDS011;3594;42.152;24.714;2022-11-15T10:25:10;14.85;;;7.22;;
7104;SDS011;3594;42.152;24.714;2022-11-15T10:27:41;13.93;;;6.80;;
7104;SDS011;3594;42.152;24.714;2022-11-15T10:30:12;16.25;;;6.88;;
7104;SDS011;3594;42.152;24.714;2022-11-15T10:32:40;18.55;;;7.50;;
7104;SDS011;3594;42.152;24.714;2022-11-15T10:38:06;16.95;;;6.63;;
7104;SDS011;3594;42.152;24.714;2022-11-15T10:40:33;12.13;;;6.07;;
7104;SDS011;3594;42.152;24.714;2022-11-15T10:45:34;12.40;;;6.30;;
7104;SDS011;3594;42.152;24.714;2022-11-15T10:50:38;15.10;;;6.68;;
7104;SDS011;3594;42.152;24.714;2022-11-15T10:53:11;17.27;;;7.63;;
7104;SDS011;3594;42.152;24.714;2022-11-15T10:55:41;17.30;;;7.80;;
7104;SDS011;3594;42.152;24.714;2022-11-15T10:58:23;19.25;;;8.32;;
7104;SDS011;3594;42.152;24.714;2022-11-15T11:00:54;12.95;;;6.60;;
7104;SDS011;3594;42.152;24.714;2022-11-15T11:06:08;14.15;;;8.32;;
7104;SDS011;3594;42.152;24.714;2022-11-15T11:08:39;12.52;;;5.93;;
7104;SDS011;3594;42.152;24.714;2022-11-15T11:11:05;12.38;;;6.32;;
7104;SDS011;3594;42.152;24.714;2022-11-15T11:13:36;14.23;;;7.05;;
7104;SDS011;3594;42.152;24.714;2022-11-15T11:26:41;13.18;;;6.85;;
7104;SDS011;3594;42.152;24.714;2022-11-15T11:29:18;16.45;;;6.38;;
7104;SDS011;3594;42.152;24.714;2022-11-15T11:34:48;16.40;;;6.65;;
7104;SDS011;3594;42.152;24.714;2022-11-15T11:37:38;13.02;;;6.90;;
7104;SDS011;3594;42.152;24.714;2022-11-15T11:40:14;16.50;;;8.18;;
7104;SDS011;3594;42.152;24.714;2022-11-15T11:50:32;12.40;;;6.97;;
7104;SDS011;3594;42.152;24.714;2022-11-15T11:53:03;16.15;;;6.80;;
7104;SDS011;3594;42.152;24.714;2022-11-15T11:55:34;14.50;;;7.25;;
7104;SDS011;3594;42.152;24.714;2022-11-15T11:58:22;16.20;;;6.85;;
7104;SDS011;3594;42.152;24.714;2022-11-15T12:03:47;17.50;;;7.03;;
7104;SDS011;3594;42.152;24.714;2022-11-15T12:08:50;13.43;;;6.50;;
7104;SDS011;3594;42.152;24.714;2022-11-15T12:11:35;13.50;;;7.13;;
7104;SDS011;3594;42.152;24.714;2022-11-15T12:14:24;17.48;;;7.22;;
7104;SDS011;3594;42.152;24.714;2022-11-15T12:16:56;14.27;;;7.00;;
7104;SDS011;3594;42.152;24.714;2022-11-15T12:19:22;15.00;;;7.85;;
7104;SDS011;3594;42.152;24.714;2022-11-15T12:22:02;14.77;;;6.85;;
7104;SDS011;3594;42.152;24.714;2022-11-15T12:24:34;14.18;;;7.10;;
7104;SDS011;3594;42.152;24.714;2022-11-15T12:29:46;15.20;;;7.43;;
7104;SDS011;3594;42.152;24.714;2022-11-15T12:32:31;12.45;;;6.60;;
7104;SDS011;3594;42.152;24.714;2022-11-15T12:34:59;14.32;;;6.45;;
7104;SDS011;3594;42.152;24.714;2022-11-15T12:37:33;12.02;;;6.35;;
7104;SDS011;3594;42.152;24.714;2022-11-15T12:45:51;15.80;;;6.85;;
7104;SDS011;3594;42.152;24.714;2022-11-15T13:02:16;12.48;;;6.88;;
7104;SDS011;3594;42.152;24.714;2022-11-15T13:17:42;13.23;;;6.45;;
7104;SDS011;3594;42.152;24.714;2022-11-15T13:28:00;13.43;;;6.60;;
7104;SDS011;3594;42.152;24.714;2022-11-15T13:30:27;12.32;;;6.45;;
7104;SDS011;3594;42.152;24.714;2022-11-15T13:32:55;12.30;;;6.30;;
7104;SDS011;3594;42.152;24.714;2022-11-15T13:35:24;16.73;;;6.70;;
7104;SDS011;3594;42.152;24.714;2022-11-15T13:37:52;15.82;;;7.03;;
7104;SDS011;3594;42.152;24.714;2022-11-15T13:42:47;13.55;;;6.35;;
7104;SDS011;3594;42.152;24.714;2022-11-15T13:45:14;14.20;;;6.20;;
7104;SDS011;3594;42.152;24.714;2022-11-15T13:47:40;9.32;;;5.85;;
7104;SDS011;3594;42.152;24.714;2022-11-15T13:50:06;13.32;;;6.53;;
7104;SDS011;3594;42.152;24.714;2022-11-15T13:52:35;13.18;;;6.57;;
7104;SDS011;3594;42.152;24.714;2022-11-15T13:55:18;16.38;;;7.35;;
7104;SDS011;3594;42.152;24.714;2022-11-15T13:57:56;14.35;;;6.43;;
7104;SDS011;3594;42.152;24.714;2022-11-15T14:00:32;13.55;;;6.57;;
7104;SDS011;3594;42.152;24.714;2022-11-15T14:03:03;14.23;;;7.15;;
7104;SDS011;3594;42.152;24.714;2022-11-15T14:05:40;16.77;;;8.27;;
7104;SDS011;3594;42.152;24.714;2022-11-15T14:10:43;14.98;;;7.85;;
7104;SDS011;3594;42.152;24.714;2022-11-15T14:13:28;15.88;;;7.88;;
7104;SDS011;3594;42.152;24.714;2022-11-15T14:16:11;15.13;;;8.00;;
7104;SDS011;3594;42.152;24.714;2022-11-15T14:18:43;14.15;;;7.43;;
7104;SDS011;3594;42.152;24.714;2022-11-15T14:21:11;13.95;;;5.93;;
7104;SDS011;3594;42.152;24.714;2022-11-15T14:23:36;17.92;;;7.78;;
7104;SDS011;3594;42.152;24.714;2022-11-15T14:26:02;17.38;;;7.38;;
7104;SDS011;3594;42.152;24.714;2022-11-15T14:28:29;16.75;;;7.13;;
7104;SDS011;3594;42.152;24.714;2022-11-15T14:30:59;16.85;;;7.88;;
7104;SDS011;3594;42.152;24.714;2022-11-15T14:35:55;17.90;;;7.85;;
7104;SDS011;3594;42.152;24.714;2022-11-15T14:38:22;14.32;;;7.10;;
7104;SDS011;3594;42.152;24.714;2022-11-15T14:40:49;14.75;;;6.95;;
7104;SDS011;3594;42.152;24.714;2022-11-15T14:43:15;18.00;;;6.95;;
7104;SDS011;3594;42.152;24.714;2022-11-15T14:45:40;16.85;;;7.70;;
7104;SDS011;3594;42.152;24.714;2022-11-15T14:48:06;15.85;;;7.47;;
7104;SDS011;3594;42.152;24.714;2022-11-15T14:50:32;16.42;;;7.88;;
7104;SDS011;3594;42.152;24.714;2022-11-15T14:52:58;16.17;;;7.28;;
7104;SDS011;3594;42.152;24.714;2022-11-15T14:55:25;20.77;;;8.65;;
7104;SDS011;3594;42.152;24.714;2022-11-15T14:57:57;15.75;;;7.97;;
7104;SDS011;3594;42.152;24.714;2022-11-15T15:00:28;15.95;;;7.65;;
7104;SDS011;3594;42.152;24.714;2022-11-15T15:02:54;12.27;;;7.78;;
7104;SDS011;3594;42.152;24.714;2022-11-15T15:05:24;17.10;;;8.52;;
7104;SDS011;3594;42.152;24.714;2022-11-15T15:07:51;17.60;;;8.68;;
7104;SDS011;3594;42.152;24.714;2022-11-15T15:10:18;23.92;;;9.60;;
7104;SDS011;3594;42.152;24.714;2022-11-15T15:12:44;22.30;;;9.82;;
7104;SDS011;3594;42.152;24.714;2022-11-15T15:15:13;22.42;;;10.00;;
7104;SDS011;3594;42.152;24.714;2022-11-15T15:17:40;25.13;;;11.02;;
7104;SDS011;3594;42.152;24.714;2022-11-15T15:20:06;21.92;;;9.75;;
7104;SDS011;3594;42.152;24.714;2022-11-15T15:22:32;19.65;;;9.25;;
7104;SDS011;3594;42.152;24.714;2022-11-15T15:24:57;19.35;;;8.30;;
7104;SDS011;3594;42.152;24.714;2022-11-15T15:27:23;19.92;;;9.00;;
7104;SDS011;3594;42.152;24.714;2022-11-15T15:29:48;16.58;;;8.85;;
7104;SDS011;3594;42.152;24.714;2022-11-15T15:32:13;19.33;;;9.50;;
7104;SDS011;3594;42.152;24.714;2022-11-15T15:34:39;20.83;;;9.02;;
7104;SDS011;3594;42.152;24.714;2022-11-15T15:37:09;18.42;;;9.48;;
7104;SDS011;3594;42.152;24.714;2022-11-15T15:39:34;21.63;;;8.55;;
7104;SDS011;3594;42.152;24.714;2022-11-15T15:41:59;17.05;;;8.88;;
7104;SDS011;3594;42.152;24.714;2022-11-15T15:44:25;19.52;;;9.80;;
7104;SDS011;3594;42.152;24.714;2022-11-15T15:46:50;20.25;;;9.10;;
7104;SDS011;3594;42.152;24.714;2022-11-15T15:49:16;20.05;;;8.40;;
7104;SDS011;3594;42.152;24.714;2022-11-15T15:51:41;18.77;;;9.32;;
7104;SDS011;3594;42.152;24.714;2022-11-15T15:54:06;19.75;;;8.93;;
7104;SDS011;3594;42.152;24.714;2022-11-15T15:56:32;19.80;;;8.80;;
7104;SDS011;3594;42.152;24.714;2022-11-15T15:58:57;20.35;;;8.38;;
7104;SDS011;3594;42.152;24.714;2022-11-15T16:01:23;20.10;;;8.73;;
7104;SDS011;3594;42.152;24.714;2022-11-15T16:03:49;21.00;;;9.15;;
7104;SDS011;3594;42.152;24.714;2022-11-15T16:09:04;19.87;;;8.60;;
7104;SDS011;3594;42.152;24.714;2022-11-15T16:11:30;18.53;;;8.43;;
7104;SDS011;3594;42.152;24.714;2022-11-15T16:13:55;19.35;;;9.52;;
7104;SDS011;3594;42.152;24.714;2022-11-15T16:16:21;17.90;;;8.60;;
7104;SDS011;3594;42.152;24.714;2022-11-15T16:18:47;19.27;;;9.23;;
7104;SDS011;3594;42.152;24.714;2022-11-15T16:21:12;23.27;;;9.50;;
7104;SDS011;3594;42.152;24.714;2022-11-15T16:23:38;19.80;;;8.10;;
7104;SDS011;3594;42.152;24.714;2022-11-15T16:26:09;15.83;;;8.17;;
7104;SDS011;3594;42.152;24.714;2022-11-15T16:29:02;16.63;;;7.97;;
7104;SDS011;3594;42.152;24.714;2022-11-15T16:31:27;17.97;;;9.30;;
7104;SDS011;3594;42.152;24.714;2022-11-15T16:33:53;14.97;;;8.70;;
7104;SDS011;3594;42.152;24.714;2022-11-15T16:36:19;20.73;;;9.53;;
7104;SDS011;3594;42.152;24.714;2022-11-15T16:38:49;19.17;;;9.30;;
7104;SDS011;3594;42.152;24.714;2022-11-15T16:41:15;20.53;;;9.27;;
7104;SDS011;3594;42.152;24.714;2022-11-15T16:43:46;21.53;;;9.07;;
7104;SDS011;3594;42.152;24.714;2022-11-15T16:46:18;18.77;;;8.37;;
7104;SDS011;3594;42.152;24.714;2022-11-15T16:48:48;22.57;;;9.57;;
7104;SDS011;3594;42.152;24.714;2022-11-15T16:51:14;19.73;;;8.37;;
7104;SDS011;3594;42.152;24.714;2022-11-15T16:53:40;24.80;;;8.13;;
7104;SDS011;3594;42.152;24.714;2022-11-15T16:56:39;16.33;;;8.90;;
7104;SDS011;3594;42.152;24.714;2022-11-15T16:58:59;15.73;;;8.07;;
7104;SDS011;3594;42.152;24.714;2022-11-15T17:01:26;17.77;;;8.47;;
7104;SDS011;3594;42.152;24.714;2022-11-15T17:03:53;19.80;;;8.77;;
7104;SDS011;3594;42.152;24.714;2022-11-15T17:06:20;24.90;;;8.43;;
7104;SDS011;3594;42.152;24.714;2022-11-15T17:08:49;20.43;;;8.67;;
7104;SDS011;3594;42.152;24.714;2022-11-15T17:11:15;20.30;;;9.27;;
7104;SDS011;3594;42.152;24.714;2022-11-15T17:13:42;26.52;;;9.23;;
7104;SDS011;3594;42.152;24.714;2022-11-15T17:16:11;23.90;;;8.50;;
7104;SDS011;3594;42.152;24.714;2022-11-15T17:18:38;23.93;;;9.00;;
7104;SDS011;3594;42.152;24.714;2022-11-15T17:21:12;16.17;;;8.10;;
7104;SDS011;3594;42.152;24.714;2022-11-15T17:23:39;15.80;;;8.80;;